Time;durP1;ratioP1;P1;durP2;ratioP2;P2;SDS_P1;SDS_P2;PMS_P1;PMS_P2;Temp;Humidity;BMP_temperature;BMP_pressure;BME280_temperature;BME280_humidity;BME280_pressure;Samples;Min_cycle;Max_cycle;Signal;HPM_P1;HPM_P2
2022/08/15 00:00:50;;;;;;;17.73;11.80;;;;;;;23.25;59.28;100234.72;5093408;28;20442;-57
2022/08/15 00:03:31;;;;;;;13.38;11.38;;;;;;;23.28;59.17;100216.38;5101498;28;20119;-59
2022/08/15 00:06:00;;;;;;;15.32;11.80;;;;;;;23.19;60.34;100203.31;5095880;28;20560;-60
2022/08/15 00:08:29;;;;;;;15.98;12.57;;;;;;;22.83;60.25;100205.81;5094126;28;20031;-60
2022/08/15 00:10:58;;;;;;;18.40;12.98;;;;;;;22.75;60.63;100200.88;5106807;27;20050;-57
2022/08/15 00:13:26;;;;;;;18.15;12.77;;;;;;;22.86;60.83;100217.97;5101158;28;20020;-58
2022/08/15 00:15:54;;;;;;;16.70;12.35;;;;;;;22.94;60.09;100217.53;5105411;28;20042;-61
2022/08/15 00:18:21;;;;;;;15.13;12.80;;;;;;;22.94;60.29;100221.03;5104942;28;20071;-58
2022/08/15 00:20:47;;;;;;;17.25;13.35;;;;;;;22.81;60.63;100214.19;5115451;27;20482;-60
2022/08/15 00:23:14;;;;;;;16.05;12.48;;;;;;;22.83;60.99;100219.31;5102084;28;20119;-57
2022/08/15 00:25:44;;;;;;;15.40;12.48;;;;;;;22.80;61.27;100217.16;5107072;28;20093;-57
2022/08/15 00:28:09;;;;;;;16.83;11.95;;;;;;;22.89;60.26;100215.56;5106908;28;20032;-58
2022/08/15 00:30:36;;;;;;;17.65;12.55;;;;;;;22.85;60.10;100219.88;5108662;27;20038;-61
2022/08/15 00:33:03;;;;;;;17.85;12.38;;;;;;;22.92;60.08;100220.47;5098076;28;20733;-60
2022/08/15 00:35:39;;;;;;;17.15;12.10;;;;;;;22.95;59.39;100217.25;5105294;28;20050;-57
2022/08/15 00:38:15;;;;;;;15.20;12.60;;;;;;;22.95;59.03;100217.25;5104153;28;20032;-57
2022/08/15 00:43:33;;;;;;;15.20;12.82;;;;;;;22.86;60.99;100216.09;5104966;28;20074;-58
2022/08/15 00:45:59;;;;;;;16.58;12.15;;;;;;;22.98;59.24;100208.63;5104148;28;20695;-57
2022/08/15 00:48:42;;;;;;;17.02;12.82;;;;;;;22.94;59.06;100215.63;5096297;28;20039;-58
2022/08/15 00:51:22;;;;;;;15.98;12.18;;;;;;;22.90;58.02;100206.38;5096716;28;20031;-57
2022/08/15 00:53:59;;;;;;;16.33;12.20;;;;;;;22.93;57.13;100216.69;5093422;28;20408;-57
2022/08/15 00:56:28;;;;;;;14.23;10.95;;;;;;;22.95;56.05;100222.66;5106908;28;20566;-58
2022/08/15 00:58:54;;;;;;;14.10;11.23;;;;;;;22.98;55.19;100211.31;5103799;28;20032;-57
2022/08/15 01:01:21;;;;;;;17.63;10.45;;;;;;;23.00;54.41;100210.25;5099724;27;20028;-59
2022/08/15 01:03:49;;;;;;;16.63;9.43;;;;;;;22.99;52.91;100220.22;5106531;28;20034;-57
2022/08/15 01:06:15;;;;;;;13.40;9.60;;;;;;;22.99;52.73;100220.22;5087226;28;20051;-57
2022/08/15 01:08:44;;;;;;;17.70;8.73;;;;;;;23.00;52.07;100221.06;5106345;28;20487;-60
2022/08/15 01:11:18;;;;;;;14.10;7.90;;;;;;;23.01;51.72;100217.28;5098510;28;20127;-58
2022/08/15 01:13:44;;;;;;;9.45;7.75;;;;;;;23.06;50.90;100211.91;5105453;28;20110;-57
2022/08/15 01:16:10;;;;;;;9.50;7.38;;;;;;;23.01;50.79;100211.88;5103924;28;20031;-56
2022/08/15 01:18:37;;;;;;;9.15;7.05;;;;;;;23.01;50.74;100211.88;5103797;28;20480;-56
2022/08/15 01:21:12;;;;;;;10.38;7.10;;;;;;;22.99;51.51;100214.81;5099963;28;20510;-60
2022/08/15 01:23:45;;;;;;;10.70;6.80;;;;;;;22.98;51.20;100203.22;5102703;28;20066;-59
2022/08/15 01:26:13;;;;;;;8.82;5.90;;;;;;;22.96;49.64;100205.38;5101388;28;20024;-57
2022/08/15 01:28:43;;;;;;;9.18;5.70;;;;;;;22.96;47.55;100213.47;5101852;28;20494;-59
2022/08/15 01:31:12;;;;;;;8.25;5.20;;;;;;;23.02;47.35;100218.91;5093835;28;20028;-59
2022/08/15 01:33:42;;;;;;;5.80;4.50;;;;;;;23.01;47.00;100214.56;5104792;27;20050;-60
2022/08/15 01:36:08;;;;;;;7.85;4.65;;;;;;;23.03;47.03;100212.44;5105453;28;20618;-59
2022/08/15 01:38:41;;;;;;;7.88;4.80;;;;;;;22.98;47.48;100203.22;5104635;28;20038;-59
2022/08/15 01:41:23;;;;;;;6.75;4.47;;;;;;;22.98;46.66;100200.50;5107228;27;20123;-57
2022/08/15 01:44:01;;;;;;;10.57;4.57;;;;;;;22.96;46.80;100210.78;5105278;28;20031;-56
2022/08/15 01:46:32;;;;;;;10.00;4.65;;;;;;;22.91;46.54;100207.22;5103898;28;20051;-58
2022/08/15 01:49:05;;;;;;;5.35;4.53;;;;;;;22.93;46.40;100222.09;5102790;28;20523;-58
2022/08/15 01:51:30;;;;;;;8.63;4.47;;;;;;;22.94;46.18;100218.31;5103727;27;20857;-58
2022/08/15 01:54:03;;;;;;;6.40;4.15;;;;;;;22.90;45.96;100221.81;5104387;28;20028;-60
2022/08/15 01:56:35;;;;;;;6.47;4.55;;;;;;;22.88;45.99;100219.34;5101268;28;20122;-59
2022/08/15 01:59:02;;;;;;;5.93;4.00;;;;;;;22.82;45.69;100212.28;5100002;28;20059;-59
2022/08/15 02:01:43;;;;;;;5.55;4.10;;;;;;;22.85;46.04;100206.38;5100499;27;20035;-58
2022/08/15 02:04:09;;;;;;;6.25;4.30;;;;;;;22.76;46.12;100210.63;5099287;28;20127;-59
2022/08/15 02:06:35;;;;;;;8.20;4.20;;;;;;;22.77;45.85;100207.66;5102637;28;20953;-58
2022/08/15 02:09:02;;;;;;;6.60;4.25;;;;;;;22.73;45.55;100206.53;5107109;27;20027;-58
2022/08/15 02:11:29;;;;;;;5.72;3.70;;;;;;;22.69;45.89;100211.66;5093588;28;20028;-57
2022/08/15 02:13:56;;;;;;;6.43;3.97;;;;;;;22.73;45.63;100216.56;5101904;28;20027;-57
2022/08/15 02:16:30;;;;;;;5.47;3.80;;;;;;;22.69;45.76;100211.66;5104926;28;20052;-56
2022/08/15 02:18:55;;;;;;;7.00;4.00;;;;;;;22.66;45.77;100212.19;5097921;28;20043;-60
2022/08/15 02:21:21;;;;;;;6.28;4.00;;;;;;;22.63;45.93;100212.69;5095683;28;20048;-57
2022/08/15 02:23:46;;;;;;;9.80;4.22;;;;;;;22.58;46.11;100218.03;5098733;28;20020;-57
2022/08/15 02:26:11;;;;;;;4.82;3.85;;;;;;;22.60;46.08;100209.69;5105188;28;20035;-58
2022/08/15 02:28:40;;;;;;;7.22;4.30;;;;;;;22.52;46.46;100209.09;5099315;28;20110;-57
2022/08/15 02:31:16;;;;;;;6.85;4.03;;;;;;;22.53;46.42;100208.03;5089523;28;20843;-59
2022/08/15 02:33:51;;;;;;;6.15;4.03;;;;;;;22.52;46.48;100214.50;5099592;28;20063;-60
2022/08/15 02:36:18;;;;;;;8.10;4.30;;;;;;;22.44;46.69;100210.34;5104969;28;20106;-58
2022/08/15 02:38:45;;;;;;;7.72;4.25;;;;;;;22.40;46.28;100208.41;5097482;28;20036;-59
2022/08/15 02:41:19;;;;;;;9.70;3.97;;;;;;;22.32;46.53;100201.59;5112542;27;20073;-57
2022/08/15 02:43:45;;;;;;;8.15;4.35;;;;;;;22.34;46.72;100209.44;5096710;28;20100;-58
2022/08/15 02:46:11;;;;;;;7.35;4.30;;;;;;;22.33;46.60;100222.13;5101461;28;20094;-58
2022/08/15 02:48:38;;;;;;;10.27;4.20;;;;;;;22.25;46.96;100217.19;5089869;28;20803;-57
2022/08/15 02:51:08;;;;;;;6.80;4.38;;;;;;;22.31;46.65;100221.56;5107583;27;20510;-57
2022/08/15 02:53:35;;;;;;;5.22;4.18;;;;;;;22.25;47.09;100222.59;5100619;28;20077;-57
2022/08/15 02:56:01;;;;;;;8.75;4.30;;;;;;;22.29;47.08;100223.69;5075509;28;20139;-57
2022/08/15 02:58:26;;;;;;;6.65;4.47;;;;;;;22.27;47.27;100215.03;5101760;28;20130;-58
2022/08/15 03:00:52;;;;;;;5.18;4.15;;;;;;;22.22;47.18;100223.09;5104782;27;20103;-56
2022/08/15 03:03:18;;;;;;;6.93;4.40;;;;;;;22.19;47.45;100216.31;5103296;28;20035;-57
2022/08/15 03:05:47;;;;;;;6.75;4.13;;;;;;;22.15;47.68;100218.72;5102410;28;20036;-58
2022/08/15 03:08:12;;;;;;;4.50;4.00;;;;;;;22.17;47.73;100216.56;5094862;28;20039;-58
2022/08/15 03:10:39;;;;;;;8.38;4.20;;;;;;;22.14;48.04;100216.25;5099578;27;20032;-60
2022/08/15 03:13:11;;;;;;;9.65;4.25;;;;;;;22.10;47.75;100218.66;5103146;28;20096;-58
2022/08/15 03:15:46;;;;;;;6.22;4.35;;;;;;;22.10;47.69;100225.94;5090162;28;20089;-60
2022/08/15 03:18:12;;;;;;;7.40;4.72;;;;;;;22.08;47.66;100228.91;5099843;28;20038;-60
2022/08/15 03:20:39;;;;;;;4.95;4.18;;;;;;;22.06;47.61;100228.34;5100129;28;20503;-57
2022/08/15 03:23:07;;;;;;;10.32;4.22;;;;;;;22.01;47.75;100233.69;5094663;28;20043;-60
2022/08/15 03:25:42;;;;;;;10.25;4.70;;;;;;;22.00;47.61;100226.66;5102071;28;20161;-60
2022/08/15 03:28:08;;;;;;;7.65;4.30;;;;;;;21.99;47.97;100214.22;5096992;28;20031;-60
2022/08/15 03:30:34;;;;;;;9.63;4.70;;;;;;;21.94;47.94;100223.06;5091741;28;20032;-57
2022/08/15 03:33:00;;;;;;;7.95;4.60;;;;;;;21.89;48.02;100221.13;5100207;28;20035;-59
2022/08/15 03:35:30;;;;;;;6.30;4.50;;;;;;;21.77;48.22;100215.06;5100819;28;20030;-59
2022/08/15 03:37:59;;;;;;;9.18;5.00;;;;;;;21.82;48.43;100225.91;5103321;28;20039;-58
2022/08/15 03:40:25;;;;;;;6.30;4.35;;;;;;;21.81;48.66;100221.56;5100766;28;20067;-58
2022/08/15 03:42:53;;;;;;;8.38;4.50;;;;;;;21.78;48.72;100219.38;5096697;28;20036;-57
2022/08/15 03:45:19;;;;;;;7.03;4.57;;;;;;;21.73;48.64;100222.03;5094773;28;20431;-56
2022/08/15 03:47:45;;;;;;;9.55;4.60;;;;;;;21.71;49.16;100224.16;5105036;28;20023;-58
2022/08/15 03:50:12;;;;;;;10.02;5.00;;;;;;;21.64;48.95;100225.16;5111000;27;20062;-60
2022/08/15 03:53:02;;;;;;;8.10;4.82;;;;;;;21.72;48.72;100231.19;5106756;28;20088;-59
2022/08/15 03:55:29;;;;;;;6.13;4.50;;;;;;;21.63;49.10;100228.91;5105994;28;20062;-58
2022/08/15 03:57:55;;;;;;;7.28;4.70;;;;;;;21.63;49.19;100237.00;5107127;28;20418;-58
2022/08/15 04:00:25;;;;;;;10.82;4.93;;;;;;;21.64;49.13;100241.34;5107611;27;20079;-57
2022/08/15 04:02:53;;;;;;;6.82;5.00;;;;;;;21.63;49.47;100234.31;5106365;28;20495;-56
2022/08/15 04:05:19;;;;;;;12.05;4.95;;;;;;;21.63;49.69;100230.78;5105452;28;20049;-57
2022/08/15 04:07:44;;;;;;;8.82;5.13;;;;;;;21.63;49.93;100233.47;5105437;28;20500;-57
2022/08/15 04:10:16;;;;;;;9.07;5.20;;;;;;;21.57;50.13;100229.88;5105731;27;20039;-57
2022/08/15 04:12:44;;;;;;;9.90;5.13;;;;;;;21.56;50.54;100225.56;5073535;28;20040;-58
2022/08/15 04:15:14;;;;;;;8.52;5.00;;;;;;;21.51;50.95;100225.50;5102927;28;20019;-57
2022/08/15 04:17:39;;;;;;;9.65;5.55;;;;;;;21.45;51.47;100227.31;5090799;28;20526;-60
2022/08/15 04:20:08;;;;;;;8.63;4.85;;;;;;;21.43;51.71;100225.94;5104474;27;20031;-57
2022/08/15 04:22:46;;;;;;;6.35;4.82;;;;;;;21.41;51.62;100233.47;5099965;28;20040;-57
2022/08/15 04:25:21;;;;;;;9.27;5.00;;;;;;;21.36;52.47;100235.03;5104933;28;20031;-57
2022/08/15 04:27:50;;;;;;;8.50;5.00;;;;;;;21.36;53.17;100240.41;5105604;28;20377;-58
2022/08/15 04:30:16;;;;;;;11.88;5.95;;;;;;;21.36;53.53;100240.41;5090963;28;20050;-57
2022/08/15 04:32:42;;;;;;;7.57;4.95;;;;;;;21.33;53.74;100240.94;5106654;28;20023;-57
2022/08/15 04:35:10;;;;;;;10.68;5.10;;;;;;;21.30;54.05;100245.97;5105707;28;20030;-56
2022/08/15 04:37:37;;;;;;;9.23;4.88;;;;;;;21.24;54.49;100242.41;5102621;28;20392;-57
2022/08/15 04:40:04;;;;;;;10.68;4.97;;;;;;;21.20;55.02;100238.56;5099197;27;20089;-61
2022/08/15 04:42:29;;;;;;;9.95;5.40;;;;;;;21.18;55.44;100243.38;5103408;28;20088;-58
2022/08/15 04:44:54;;;;;;;9.65;5.28;;;;;;;21.19;55.16;100239.63;5104321;28;20047;-57
2022/08/15 04:47:20;;;;;;;8.10;5.15;;;;;;;21.18;55.70;100243.38;5098249;28;20030;-58
2022/08/15 04:49:45;;;;;;;9.13;5.40;;;;;;;21.19;55.56;100250.41;5100779;27;20047;-60
2022/08/15 04:52:17;;;;;;;10.15;5.45;;;;;;;21.19;55.82;100240.47;5104227;28;20476;-57
2022/08/15 04:54:43;;;;;;;9.70;5.63;;;;;;;21.22;56.16;100239.16;5102560;28;20040;-61
2022/08/15 04:57:09;;;;;;;12.52;5.40;;;;;;;21.20;56.29;100241.25;5105203;28;20089;-58
2022/08/15 04:59:36;;;;;;;8.57;5.03;;;;;;;21.22;56.68;100244.53;5104526;27;20028;-59
2022/08/15 05:02:03;;;;;;;9.00;5.32;;;;;;;21.21;56.81;100248.28;5103068;28;20453;-56
2022/08/15 05:04:28;;;;;;;11.27;5.45;;;;;;;21.24;56.99;100247.78;5105142;28;20138;-59
2022/08/15 05:06:54;;;;;;;11.07;5.13;;;;;;;21.28;57.04;100254.34;5106040;28;20551;-58
2022/08/15 05:09:19;;;;;;;8.95;5.60;;;;;;;21.33;56.77;100250.88;5103711;27;20039;-58
2022/08/15 05:11:44;;;;;;;13.20;5.47;;;;;;;21.39;56.95;100257.16;5099466;28;20026;-58
2022/08/15 05:14:10;;;;;;;12.35;5.35;;;;;;;21.33;57.36;100246.31;5102530;28;20357;-58
2022/08/15 05:16:35;;;;;;;8.82;5.03;;;;;;;21.40;57.96;100246.13;5096511;28;20035;-58
2022/08/15 05:19:01;;;;;;;8.95;5.15;;;;;;;21.40;57.40;100245.31;5093177;28;20047;-59
2022/08/15 05:21:28;;;;;;;9.25;5.50;;;;;;;21.41;57.82;100263.13;5101336;27;20509;-57
2022/08/15 05:23:54;;;;;;;9.20;4.60;;;;;;;21.43;57.65;100266.38;5104267;28;20551;-60
2022/08/15 05:26:20;;;;;;;9.85;5.10;;;;;;;21.45;57.34;100261.56;5106051;28;20106;-59
2022/08/15 05:28:45;;;;;;;8.93;5.22;;;;;;;21.44;57.55;100268.00;5091124;28;20028;-61
2022/08/15 05:31:11;;;;;;;13.82;5.20;;;;;;;21.45;57.61;100266.94;5114168;27;20408;-56
2022/08/15 05:33:37;;;;;;;10.10;4.90;;;;;;;21.46;57.88;100282.88;5103637;28;20057;-57
2022/08/15 05:36:06;;;;;;;9.70;5.40;;;;;;;21.45;58.08;100280.44;5105800;28;20031;-59
2022/08/15 05:38:44;;;;;;;8.70;5.22;;;;;;;21.43;57.74;100280.69;5105469;28;20023;-58
2022/08/15 05:41:26;;;;;;;14.15;5.85;;;;;;;21.44;58.60;100281.50;5099560;28;20054;-56
2022/08/15 05:44:03;;;;;;;9.77;5.28;;;;;;;21.43;58.96;100282.56;5100704;28;20370;-57
2022/08/15 05:46:46;;;;;;;11.40;5.70;;;;;;;21.37;58.87;100274.41;5100858;28;20039;-57
2022/08/15 05:49:36;;;;;;;11.13;5.57;;;;;;;21.36;59.86;100277.34;5097246;28;20110;-56
2022/08/15 05:52:41;;;;;;;7.57;5.22;;;;;;;21.40;58.69;100277.69;5101289;28;20092;-57
2022/08/15 05:55:21;;;;;;;8.55;5.50;;;;;;;21.34;59.43;100274.91;5100663;28;20038;-59
2022/08/15 05:58:15;;;;;;;10.05;4.93;;;;;;;21.37;59.50;100284.38;5093545;28;20020;-57
2022/08/15 06:00:46;;;;;;;9.93;5.43;;;;;;;21.33;60.09;100283.25;5102880;27;20104;-60
2022/08/15 06:03:17;;;;;;;12.38;5.30;;;;;;;21.32;60.17;100278.91;5099803;28;20080;-56
2022/08/15 06:05:48;;;;;;;7.85;5.30;;;;;;;21.31;60.24;100278.09;5099309;28;20035;-59
2022/08/15 06:08:20;;;;;;;12.32;5.40;;;;;;;21.33;60.51;100281.38;5101216;28;20039;-58
2022/08/15 06:10:58;;;;;;;12.00;5.50;;;;;;;21.39;60.19;100289.50;5106196;27;20040;-57
2022/08/15 06:13:30;;;;;;;11.80;5.40;;;;;;;21.37;60.29;100279.78;5102549;28;20982;-58
2022/08/15 06:16:16;;;;;;;7.85;5.13;;;;;;;21.46;59.98;100292.88;5105352;28;20068;-61
2022/08/15 06:18:43;;;;;;;9.82;5.60;;;;;;;21.44;60.72;100289.59;5096493;28;20864;-58
2022/08/15 06:21:09;;;;;;;7.15;5.18;;;;;;;21.46;60.40;100287.47;5105615;27;20024;-59
2022/08/15 06:23:34;;;;;;;11.18;5.53;;;;;;;21.52;60.66;100296.44;5104666;28;20031;-61
2022/08/15 06:26:28;;;;;;;11.00;5.28;;;;;;;21.59;60.12;100287.13;5101518;28;20032;-61
2022/08/15 06:29:24;;;;;;;8.07;5.20;;;;;;;21.61;60.08;100295.78;5100246;28;20031;-61
2022/08/15 06:32:18;;;;;;;10.68;5.50;;;;;;;21.61;60.78;100295.78;5097192;28;20038;-60
2022/08/15 06:34:59;;;;;;;11.05;5.45;;;;;;;21.63;60.53;100293.66;5079511;28;20649;-59
2022/08/15 06:37:46;;;;;;;8.93;5.30;;;;;;;21.62;61.16;100286.59;5099402;28;20505;-57
2022/08/15 06:40:41;;;;;;;7.88;5.13;;;;;;;21.70;60.62;100287.28;5096649;27;20115;-58
2022/08/15 06:43:07;;;;;;;8.32;5.68;;;;;;;21.67;61.67;100283.19;5102729;28;20497;-59
2022/08/15 06:45:43;;;;;;;10.95;5.63;;;;;;;21.68;61.87;100283.97;5091344;28;20108;-56
2022/08/15 06:48:15;;;;;;;11.60;5.68;;;;;;;21.72;61.60;100290.56;5104882;28;20031;-58
2022/08/15 06:50:46;;;;;;;10.40;5.40;;;;;;;21.74;62.01;100291.09;5107691;27;20031;-61
2022/08/15 06:53:24;;;;;;;9.15;5.20;;;;;;;21.75;61.56;100298.97;5100315;28;20049;-58
2022/08/15 06:56:14;;;;;;;10.27;5.55;;;;;;;21.80;61.20;100298.19;5101492;28;20031;-61
2022/08/15 06:59:06;;;;;;;10.30;5.38;;;;;;;21.78;61.76;100305.75;5104730;28;20027;-58
2022/08/15 07:01:53;;;;;;;9.57;5.50;;;;;;;21.81;61.38;100309.81;5096157;28;20472;-60
2022/08/15 07:04:43;;;;;;;9.38;5.57;;;;;;;21.82;62.12;100306.88;5101215;28;20084;-58
2022/08/15 07:07:32;;;;;;;9.82;6.00;;;;;;;21.88;61.70;100300.47;5100938;28;20114;-58
2022/08/15 07:10:23;;;;;;;8.98;5.70;;;;;;;21.86;62.63;100291.81;5108832;27;20058;-58
2022/08/15 07:13:16;;;;;;;10.57;5.50;;;;;;;21.96;61.75;100290.31;5099680;28;20166;-57
2022/08/15 07:16:02;;;;;;;8.88;5.90;;;;;;;22.12;62.00;100284.03;5100780;28;20032;-58
2022/08/15 07:18:39;;;;;;;10.02;5.65;;;;;;;22.23;61.79;100289.53;5097294;28;20035;-59
2022/08/15 07:21:06;;;;;;;11.50;6.00;;;;;;;22.21;61.51;100291.66;5109279;28;20031;-59
2022/08/15 07:23:33;;;;;;;11.95;6.03;;;;;;;22.12;61.66;100278.63;5107082;28;20476;-59
2022/08/15 07:26:10;;;;;;;10.30;5.57;;;;;;;22.17;61.60;100292.16;5101207;27;20127;-58
2022/08/15 07:28:38;;;;;;;10.40;6.10;;;;;;;22.15;62.10;100288.91;5102183;28;20451;-61
2022/08/15 07:31:20;;;;;;;8.20;5.55;;;;;;;22.23;62.10;100284.94;5101850;28;20032;-58
2022/08/15 07:33:51;;;;;;;8.40;6.20;;;;;;;22.30;62.39;100288.25;5095681;28;20032;-57
2022/08/15 07:36:20;;;;;;;10.05;6.38;;;;;;;22.34;61.55;100285.06;5108584;28;20059;-57
2022/08/15 07:38:46;;;;;;;10.07;6.18;;;;;;;22.38;62.56;100281.59;5102083;28;20472;-59
2022/08/15 07:41:13;;;;;;;10.32;6.53;;;;;;;22.45;61.88;100281.41;5106926;27;20031;-57
2022/08/15 07:43:39;;;;;;;12.07;6.60;;;;;;;22.44;61.50;100285.16;5102755;28;20086;-57
2022/08/15 07:46:04;;;;;;;13.70;6.57;;;;;;;22.49;61.65;100287.91;5104095;27;20828;-59
2022/08/15 07:48:31;;;;;;;12.25;6.88;;;;;;;22.48;61.52;100302.50;5102600;27;20123;-57
2022/08/15 07:51:25;;;;;;;16.02;7.10;;;;;;;22.51;61.13;100291.19;5101830;28;20038;-60
2022/08/15 07:53:55;;;;;;;12.25;7.35;;;;;;;22.48;61.52;100288.16;5078551;28;21431;-57
2022/08/15 07:56:22;;;;;;;11.30;6.88;;;;;;;22.49;61.76;100295.22;5103358;28;20647;-58
2022/08/15 07:58:51;;;;;;;9.52;6.90;;;;;;;22.47;62.10;100300.03;5096339;28;20028;-59
2022/08/15 08:01:23;;;;;;;14.90;7.25;;;;;;;22.53;61.54;100299.03;5097332;28;20035;-59
2022/08/15 08:03:55;;;;;;;10.48;6.88;;;;;;;22.56;61.98;100303.94;5098357;28;20526;-60
2022/08/15 08:06:42;;;;;;;14.77;7.20;;;;;;;22.65;60.92;100302.41;5099832;28;20042;-59
2022/08/15 08:09:18;;;;;;;11.43;7.20;;;;;;;22.66;61.37;100298.66;5103021;28;20491;-60
2022/08/15 08:11:54;;;;;;;13.00;6.88;;;;;;;22.69;61.14;100298.13;5102092;28;20036;-59
2022/08/15 08:14:35;;;;;;;12.57;6.85;;;;;;;22.75;60.31;100309.00;5099390;28;20055;-58
2022/08/15 08:17:30;;;;;;;9.60;6.75;;;;;;;22.79;60.41;100302.81;5100952;28;20047;-59
2022/08/15 08:20:34;;;;;;;11.35;6.60;;;;;;;22.88;60.22;100315.88;5098744;27;20488;-58
2022/08/15 08:23:30;;;;;;;13.43;6.80;;;;;;;22.92;60.22;100312.38;5100629;28;20089;-58
2022/08/15 08:26:07;;;;;;;10.05;6.38;;;;;;;22.97;60.97;100312.44;5102650;28;20028;-60
2022/08/15 08:28:46;;;;;;;11.15;6.18;;;;;;;23.01;60.47;100314.59;5103490;28;20027;-59
2022/08/15 08:31:34;;;;;;;10.75;6.25;;;;;;;22.96;60.31;100316.22;5097007;28;20028;-60
2022/08/15 08:34:09;;;;;;;8.63;6.10;;;;;;;22.98;60.25;100318.63;5102271;28;20399;-59
2022/08/15 08:36:59;;;;;;;11.57;6.15;;;;;;;23.00;60.04;100307.56;5098566;28;20115;-57
2022/08/15 08:39:41;;;;;;;11.23;6.35;;;;;;;23.02;60.14;100316.22;5109543;27;20067;-59
2022/08/15 08:42:24;;;;;;;12.80;6.20;;;;;;;23.03;60.60;100307.06;5106415;28;20041;-60
2022/08/15 08:44:59;;;;;;;9.15;5.90;;;;;;;23.05;60.53;100316.53;5101623;28;20131;-58
2022/08/15 08:47:40;;;;;;;8.95;6.00;;;;;;;23.04;60.63;100311.41;5102115;28;20474;-60
2022/08/15 08:50:31;;;;;;;11.32;6.50;;;;;;;23.05;60.24;100310.31;5105559;27;20539;-59
2022/08/15 08:53:29;;;;;;;10.82;6.07;;;;;;;22.97;60.70;100312.44;5100433;28;20047;-60
2022/08/15 08:56:14;;;;;;;16.10;6.30;;;;;;;22.96;60.45;100321.63;5099906;28;20367;-59
2022/08/15 08:58:49;;;;;;;8.88;6.22;;;;;;;22.88;60.77;100311.25;5097400;28;20031;-58
2022/08/15 09:01:21;;;;;;;13.57;6.45;;;;;;;22.86;60.93;100318.00;5092101;28;20032;-58
2022/08/15 09:03:52;;;;;;;10.80;6.18;;;;;;;22.83;61.68;100319.31;5098708;28;20050;-60
2022/08/15 09:06:25;;;;;;;14.35;6.53;;;;;;;22.80;61.17;100322.56;5101292;28;20040;-60
2022/08/15 09:09:15;;;;;;;10.77;6.53;;;;;;;22.84;61.10;100331.75;5100833;28;20039;-60
2022/08/15 09:11:47;;;;;;;9.63;6.18;;;;;;;22.71;61.41;100328.41;5100705;28;20035;-58
2022/08/15 09:14:23;;;;;;;14.43;6.40;;;;;;;22.74;61.98;100337.88;5100175;28;20032;-59
2022/08/15 09:16:52;;;;;;;11.07;6.72;;;;;;;22.74;61.67;100337.09;5103531;28;20047;-59
2022/08/15 09:19:27;;;;;;;9.98;6.00;;;;;;;22.76;61.83;100343.03;5104279;27;20047;-58
2022/08/15 09:21:53;;;;;;;14.00;6.82;;;;;;;22.82;61.78;100345.56;5098310;28;20096;-60
2022/08/15 09:24:21;;;;;;;13.30;6.40;;;;;;;22.86;62.09;100339.63;5101427;28;20035;-59
2022/08/15 09:27:12;;;;;;;11.57;6.97;;;;;;;22.92;61.85;100328.59;5100178;28;20462;-59
2022/08/15 09:29:43;;;;;;;9.77;6.65;;;;;;;23.03;61.61;100334.09;5069915;27;20131;-59
2022/08/15 09:32:34;;;;;;;13.05;6.65;;;;;;;23.20;60.99;100337.47;5096430;28;20028;-59
2022/08/15 09:35:05;;;;;;;12.45;7.13;;;;;;;23.21;61.27;100339.13;5079357;28;20090;-59
2022/08/15 09:37:59;;;;;;;13.05;6.70;;;;;;;23.27;60.75;100344.56;5102694;28;20035;-60
2022/08/15 09:40:34;;;;;;;11.25;6.85;;;;;;;23.25;60.81;100345.63;5100854;28;20027;-58
2022/08/15 09:43:42;;;;;;;10.70;6.65;;;;;;;23.38;60.55;100338.16;5097111;28;20023;-59
2022/08/15 09:46:10;;;;;;;11.13;7.50;;;;;;;23.35;60.82;100336.78;5099458;28;20533;-59
2022/08/15 09:48:39;;;;;;;12.80;7.13;;;;;;;23.43;60.64;100330.09;5102883;27;20035;-59
2022/08/15 09:51:34;;;;;;;11.20;7.53;;;;;;;23.50;60.26;100330.66;5099360;27;20110;-59
2022/08/15 09:54:16;;;;;;;14.45;8.20;;;;;;;23.62;59.84;100335.06;5097388;28;20039;-60
2022/08/15 09:56:43;;;;;;;12.37;8.03;;;;;;;23.58;60.27;100328.56;5098734;28;20024;-60
2022/08/15 09:59:20;;;;;;;13.93;7.68;;;;;;;23.60;60.17;100338.06;5098145;27;20282;-60
2022/08/15 10:01:46;;;;;;;13.25;7.55;;;;;;;23.65;59.78;100334.56;5103584;28;20019;-59
2022/08/15 10:04:14;;;;;;;10.80;6.80;;;;;;;23.67;60.22;100337.81;5103877;28;20039;-59
2022/08/15 10:07:00;;;;;;;11.55;7.80;;;;;;;23.73;59.64;100344.88;5100671;28;20085;-59
2022/08/15 10:09:30;;;;;;;12.07;7.65;;;;;;;23.69;59.85;100341.09;5105590;27;20035;-59
2022/08/15 10:12:06;;;;;;;11.85;7.43;;;;;;;23.75;59.44;100334.63;5104976;27;20066;-60
2022/08/15 10:14:46;;;;;;;14.93;7.60;;;;;;;23.85;59.37;100338.44;5098937;28;20042;-59
2022/08/15 10:17:27;;;;;;;18.98;7.35;;;;;;;23.95;59.34;100338.50;5098748;28;20092;-59
2022/08/15 10:19:52;;;;;;;13.93;7.35;;;;;;;23.95;59.35;100337.69;5094515;27;20122;-59
2022/08/15 10:22:18;;;;;;;12.93;7.20;;;;;;;23.96;59.34;100328.47;5098292;28;20172;-60
2022/08/15 10:24:44;;;;;;;10.23;6.75;;;;;;;23.98;59.57;100337.97;5104892;28;20030;-59
2022/08/15 10:27:17;;;;;;;11.02;6.90;;;;;;;23.92;58.63;100336.31;5103119;28;20871;-59
2022/08/15 10:29:48;;;;;;;11.52;6.82;;;;;;;23.90;58.97;100330.34;5099186;28;20040;-61
2022/08/15 10:32:29;;;;;;;9.13;6.43;;;;;;;24.01;58.82;100337.44;5101056;28;20038;-59
2022/08/15 10:35:04;;;;;;;8.52;6.15;;;;;;;24.04;58.70;100336.91;5095978;28;20551;-62
2022/08/15 10:37:51;;;;;;;9.80;6.35;;;;;;;24.07;58.66;100337.47;5099897;28;20036;-60
2022/08/15 10:40:39;;;;;;;11.98;6.30;;;;;;;24.08;58.91;100341.84;5095180;27;20472;-60
2022/08/15 10:43:20;;;;;;;10.35;6.10;;;;;;;24.05;58.73;100341.25;5101460;28;20027;-59
2022/08/15 10:46:05;;;;;;;14.07;5.97;;;;;;;24.07;58.61;100345.59;5095103;28;20807;-59
2022/08/15 10:48:58;;;;;;;11.63;6.55;;;;;;;24.07;58.35;100345.59;5095181;28;20039;-60
2022/08/15 10:51:44;;;;;;;9.48;6.20;;;;;;;24.03;58.56;100346.13;5096359;27;20043;-58
2022/08/15 10:54:28;;;;;;;10.95;6.35;;;;;;;23.99;58.93;100347.75;5095598;28;20023;-61
2022/08/15 10:56:55;;;;;;;12.63;6.20;;;;;;;23.97;58.88;100357.19;5096077;28;20602;-58
2022/08/15 10:59:25;;;;;;;15.23;6.72;;;;;;;23.96;59.04;100350.97;5098584;27;20024;-61
2022/08/15 11:02:01;;;;;;;12.00;6.43;;;;;;;23.98;58.69;100354.22;5099169;28;20035;-61
2022/08/15 11:04:36;;;;;;;11.95;5.97;;;;;;;23.95;58.90;100353.94;5099650;28;20106;-59
2022/08/15 11:07:16;;;;;;;11.63;6.32;;;;;;;23.95;58.71;100353.94;5099541;28;20027;-58
2022/08/15 11:09:42;;;;;;;10.90;6.15;;;;;;;23.96;58.48;100353.66;5094492;28;20045;-58
2022/08/15 11:12:08;;;;;;;11.60;6.20;;;;;;;23.88;59.53;100356.88;5094824;28;21131;-61
2022/08/15 11:14:43;;;;;;;11.10;6.45;;;;;;;23.86;58.98;100356.31;5097553;28;20127;-61
2022/08/15 11:17:20;;;;;;;10.98;6.10;;;;;;;23.82;59.50;100350.63;5091068;28;20115;-60
2022/08/15 11:19:49;;;;;;;14.00;6.53;;;;;;;23.80;59.53;100349.25;5097885;28;20046;-59
2022/08/15 11:22:37;;;;;;;12.30;6.45;;;;;;;23.82;59.33;100345.19;5102711;28;20035;-59
2022/08/15 11:25:17;;;;;;;11.68;6.72;;;;;;;23.78;58.72;100352.25;5097855;28;20035;-59
2022/08/15 11:27:46;;;;;;;9.85;6.50;;;;;;;23.75;58.89;100344.63;5097280;28;20035;-59
2022/08/15 11:30:21;;;;;;;11.40;6.20;;;;;;;23.82;58.56;100349.81;5094452;28;21016;-59
2022/08/15 11:32:47;;;;;;;11.55;6.10;;;;;;;23.89;58.69;100355.81;5089406;28;20443;-59
2022/08/15 11:35:21;;;;;;;8.48;6.38;;;;;;;23.88;58.59;100348.75;5102383;28;20130;-59
2022/08/15 11:37:47;;;;;;;9.52;5.90;;;;;;;23.94;58.56;100353.13;5103625;28;20480;-60
2022/08/15 11:40:27;;;;;;;11.60;6.22;;;;;;;24.00;58.21;100352.06;5093079;28;20530;-59
2022/08/15 11:42:55;;;;;;;10.85;6.63;;;;;;;24.07;58.31;100351.00;5094913;28;20035;-59
2022/08/15 11:45:25;;;;;;;11.65;5.93;;;;;;;24.21;57.87;100357.59;5095240;28;20066;-59
2022/08/15 11:47:54;;;;;;;9.75;6.18;;;;;;;24.28;58.42;100358.16;5102053;28;20030;-59
2022/08/15 11:50:27;;;;;;;13.23;6.53;;;;;;;24.37;57.30;100349.53;5097731;28;20057;-59